KFDY

Details ICAO KFDY (FDY)
Name FINDLAY
Region United States
Timezone America/New_York (UTC-5.0)
Plans Departing 0
Arriving 2
Stats Elevation 813 ft / 248 m (AMSL)
Location 41.013601° -83.668731°
Runways 2
Magnetic Variation 6.822° W
Sunrise 2017-12-14 12:53:24 UTC / 2017-12-14 07:53:24 Local
Sunset 2017-12-14 22:08:20 UTC / 2017-12-14 17:08:20 Local
Advertisement - Login to hide

Runways

ID Width Length Bearing (true) Bearing (mag) Surface Threshold Offset Overrun Length
07 98 ft / 30 m 5,889 ft / 1,795 m 68.59° 75.41° Asphalt 325 ft / 99 m 0 ft / 0 m
18 98 ft / 30 m 6,504 ft / 1,982 m 180.30° 187.12° Asphalt 0 ft / 0 m 0 ft / 0 m
25 98 ft / 30 m 5,889 ft / 1,795 m 248.61° 255.43° Asphalt 1,001 ft / 305 m 0 ft / 0 m
36 98 ft / 30 m 6,504 ft / 1,982 m 0.30° 7.12° Asphalt 0 ft / 0 m 0 ft / 0 m

Map

Weather


0- 5 10 15 20 25 30 35+ Temperature / ° C

Clouds and Precipitation
Forecast for 2017-12-15 00:00 UTC. Updated an hour ago

Ground ~20,000 ft ~40,000 ft Winds

METAR

KFDY 142153Z AUTO 27003KT 10SM CLR M09/M16 A3004 RMK AO2 SLP184 T10891161

TAF

KFDY 141747Z 1418/1518 29006KT P6SM OVC250 FM150300 25004KT P6SM OVC250 FM150500 VRB03KT P6SM SCT100 OVC200 FM151100 20007KT P6SM BKN045 FM151600 23012KT 6SM -SN OVC030

Frequencies

Recorded 124.42 MHz ASOS
Approach 120.80 MHz TOLEDO APP/DEP
Unicom 122.72 MHz CTAF/UNICOM
Warning: Do not use this data for real-world aviation or navigation. No guarantee of current accuracy is given.